Time;durP1;ratioP1;P1;durP2;ratioP2;P2;SDS_P1;SDS_P2;PMS_P1;PMS_P2;Temp;Humidity;BMP_temperature;BMP_pressure;BME280_temperature;BME280_humidity;BME280_pressure;Samples;Min_cycle;Max_cycle;Signal;HPM_P1;HPM_P2
2021/11/01 11:13:24;;;;;;;6.17;2.40;;;13.30;99.90;;;;;;5111468;28;20245;-81
2021/11/01 11:15:54;;;;;;;6.07;3.20;;;13.10;99.90;;;;;;5111724;28;20164;-81
2021/11/01 11:24:06;;;;;;;7.77;7.10;;;13.20;99.90;;;;;;5111168;28;20177;-81
2021/11/01 11:48:33;;;;;;;53.37;50.90;;;13.30;99.90;;;;;;5083317;28;20237;-84
2021/11/01 11:50:38;;;;;;;27.93;26.33;;;13.40;99.90;;;;;;5076999;28;20204;-83
2021/11/01 11:53:10;;;;;;;17.07;15.87;;;13.40;99.90;;;;;;5077404;28;20222;-81
2021/11/01 11:55:35;;;;;;;9.70;8.90;;;13.40;99.90;;;;;;5060649;28;20649;-81
2021/11/01 11:58:03;;;;;;;32.53;30.57;;;13.40;99.90;;;;;;5076559;28;20176;-84
2021/11/01 12:00:30;;;;;;;33.47;31.67;;;13.40;99.90;;;;;;5059881;28;20279;-83
2021/11/01 12:02:57;;;;;;;9.73;7.10;;;13.50;99.90;;;;;;5060391;28;20188;-83
2021/11/01 12:05:57;;;;;;;12.30;11.13;;;13.50;99.90;;;;;;5075375;28;20189;-83
2021/11/01 12:08:34;;;;;;;28.30;26.63;;;13.60;99.90;;;;;;5074829;28;20161;-83
2021/11/01 12:19:04;;;;;;;23.23;22.07;;;14.00;99.90;;;;;;5075600;28;20284;-84
2021/11/01 12:21:30;;;;;;;82.03;78.03;;;14.10;99.90;;;;;;5074918;28;20193;-83
2021/11/01 12:23:55;;;;;;;85.30;81.30;;;14.00;99.90;;;;;;5075397;28;20182;-84
2021/11/01 12:26:22;;;;;;;50.57;47.87;;;13.90;99.90;;;;;;5058796;28;20166;-83
2021/11/01 12:28:59;;;;;;;59.30;56.47;;;13.90;99.90;;;;;;5075088;28;20193;-83
2021/11/01 12:31:25;;;;;;;24.77;23.57;;;14.00;99.90;;;;;;5075441;28;20192;-83
2021/11/01 12:37:04;;;;;;;69.87;66.43;;;14.10;99.90;;;;;;5112253;27;20886;-79
2021/11/01 12:39:36;;;;;;;38.00;36.23;;;14.20;99.90;;;;;;5095342;22;20230;-75
2021/11/01 12:57:47;;;;;;;62.50;59.60;;;14.20;99.90;;;;;;5037319;28;20208;-73
2021/11/01 13:00:13;;;;;;;70.37;67.00;;;14.30;99.90;;;;;;5001769;28;20274;-73
2021/11/01 13:02:45;;;;;;;47.27;45.07;;;14.30;99.90;;;;;;5022520;28;20179;-73
2021/11/01 13:05:21;;;;;;;46.20;44.00;;;14.20;99.90;;;;;;5036904;28;20172;-72
2021/11/01 13:07:50;;;;;;;53.67;50.83;;;14.30;99.90;;;;;;5050670;28;20213;-72
2021/11/01 13:10:28;;;;;;;67.97;64.80;;;14.30;99.90;;;;;;5017147;28;20206;-72
2021/11/01 13:18:13;;;;;;;53.67;51.03;;;14.30;99.90;;;;;;5037715;28;20190;-74
2021/11/01 13:20:44;;;;;;;64.87;61.53;;;14.30;99.90;;;;;;5042551;28;20235;-75
2021/11/01 13:23:11;;;;;;;56.03;53.57;;;14.30;99.90;;;;;;5037153;28;20180;-75
2021/11/01 13:25:55;;;;;;;41.77;39.67;;;14.20;99.90;;;;;;5049837;28;20229;-75
2021/11/01 13:38:52;;;;;;;21.80;20.63;;;14.00;99.90;;;;;;5007299;28;20214;-75
2021/11/01 13:41:27;;;;;;;29.10;27.50;;;14.00;99.90;;;;;;5006546;28;20619;-76
2021/11/01 13:44:06;;;;;;;61.43;58.50;;;14.00;99.90;;;;;;5007533;28;20673;-75
2021/11/01 13:46:32;;;;;;;33.30;31.60;;;14.00;99.90;;;;;;5002053;28;20172;-76
2021/11/01 13:48:58;;;;;;;37.77;35.97;;;14.00;99.90;;;;;;5013665;28;20198;-75
2021/11/01 13:51:28;;;;;;;49.27;46.77;;;13.90;99.90;;;;;;4993858;28;20410;-75
2021/11/01 13:56:34;;;;;;;35.43;33.53;;;13.90;99.90;;;;;;5006663;28;20193;-77
2021/11/01 13:59:03;;;;;;;32.43;30.90;;;13.90;99.90;;;;;;4999433;28;20203;-77
2021/11/01 14:20:53;;;;;;;29.67;28.13;;;13.80;99.90;;;;;;5028896;28;20183;-74
2021/11/01 14:31:14;;;;;;;19.07;18.07;;;13.80;99.90;;;;;;5023565;28;20658;-76
2021/11/01 15:00:28;;;;;;;36.43;34.63;;;13.30;99.90;;;;;;4992624;28;20537;-77
2021/11/01 15:18:59;;;;;;;36.80;35.20;;;13.20;99.90;;;;;;4992774;28;20265;-77
2021/11/01 15:37:40;;;;;;;23.50;22.30;;;12.60;99.90;;;;;;4993469;28;20180;-78
2021/11/01 16:16:09;;;;;;;25.67;24.40;;;11.70;99.90;;;;;;5006521;28;20681;-77
2021/11/01 16:18:39;;;;;;;23.47;22.33;;;11.60;99.90;;;;;;5004471;28;20184;-77
2021/11/01 16:21:05;;;;;;;24.37;23.00;;;11.70;99.90;;;;;;5004726;28;20172;-74
2021/11/01 16:23:38;;;;;;;19.50;18.43;;;11.70;99.90;;;;;;5004446;28;20665;-76
2021/11/01 16:26:16;;;;;;;28.97;27.13;;;11.70;99.90;;;;;;5026913;28;20194;-72
2021/11/01 16:28:42;;;;;;;90.63;86.63;;;11.70;99.90;;;;;;5025842;28;20537;-75
2021/11/01 16:33:37;;;;;;;54.70;52.13;;;11.70;99.90;;;;;;5027788;28;20543;-75
2021/11/01 16:36:08;;;;;;;49.07;46.63;;;11.70;99.90;;;;;;5010760;28;20273;-75
2021/11/01 16:38:43;;;;;;;41.73;39.67;;;11.70;99.90;;;;;;5026322;28;20195;-75
2021/11/01 16:41:09;;;;;;;45.80;43.60;;;11.60;99.90;;;;;;5026714;28;20206;-75
2021/11/01 16:43:36;;;;;;;44.67;42.47;;;11.60;99.90;;;;;;5027304;28;20550;-75
2021/11/01 16:46:02;;;;;;;51.40;48.50;;;11.50;99.90;;;;;;5010927;28;20183;-75
2021/11/01 16:48:27;;;;;;;38.00;35.70;;;11.40;99.90;;;;;;5043608;28;20645;-74
2021/11/01 16:50:54;;;;;;;70.77;66.53;;;11.40;99.90;;;;;;5010880;28;20175;-75
2021/11/01 16:53:19;;;;;;;42.13;39.97;;;11.30;99.90;;;;;;5027252;28;20179;-75
2021/11/01 16:55:48;;;;;;;46.83;44.23;;;11.30;99.90;;;;;;5027300;28;20551;-77
2021/11/01 16:58:43;;;;;;;180.97;171.10;;;11.20;99.90;;;;;;5010583;28;20179;-75
2021/11/01 17:01:01;;;;;;;182.57;172.50;;;11.20;99.90;;;;;;5024652;28;20191;-75
2021/11/01 17:03:39;;;;;;;43.37;41.10;;;11.00;99.90;;;;;;5010897;28;20168;-75
2021/11/01 17:06:22;;;;;;;53.00;50.30;;;10.90;99.90;;;;;;5010741;28;20250;-75
2021/11/01 17:22:42;;;;;;;234.53;221.63;;;10.50;99.90;;;;;;5026769;28;20162;-76
2021/11/01 17:35:57;;;;;;;56.23;53.13;;;10.50;99.90;;;;;;5027915;28;20266;-76
2021/11/01 18:39:48;;;;;;;142.53;134.67;;;9.90;99.90;;;;;;4993950;28;20298;-77
2021/11/01 18:53:07;;;;;;;181.00;170.23;;;9.60;99.90;;;;;;5028113;23;20242;-80
2021/11/01 18:55:32;;;;;;;229.87;217.53;;;9.60;99.90;;;;;;5009054;28;20281;-80
2021/11/01 18:57:59;;;;;;;151.03;142.73;;;9.50;99.90;;;;;;4986463;28;20275;-80
2021/11/01 19:00:25;;;;;;;220.30;208.20;;;9.60;99.90;;;;;;4995100;28;20232;-81
2021/11/01 19:02:51;;;;;;;403.37;380.93;;;9.50;99.90;;;;;;5008210;28;20195;-80
2021/11/01 19:05:55;;;;;;;404.23;378.67;;;9.40;99.90;;;;;;4996801;28;20221;-81
2021/11/01 19:08:26;;;;;;;486.77;455.10;;;9.40;99.90;;;;;;5025477;28;20187;-77
2021/11/01 20:05:44;;;;;;;462.27;435.60;;;9.20;99.90;;;;;;5025861;28;20928;-79
2021/11/01 20:08:37;;;;;;;242.60;226.93;;;9.20;99.90;;;;;;4981800;28;20189;-79
2021/11/01 21:25:49;;;;;;;466.50;443.20;;;8.00;99.90;;;;;;5013993;28;20171;-80
2021/11/01 21:28:15;;;;;;;269.20;255.37;;;8.00;99.90;;;;;;4997400;28;20167;-80
2021/11/01 21:30:41;;;;;;;368.13;348.53;;;8.10;99.90;;;;;;4998234;28;20176;-80
2021/11/01 21:33:06;;;;;;;397.57;377.77;;;8.10;99.90;;;;;;4997339;28;20195;-80
2021/11/01 21:35:41;;;;;;;407.73;386.37;;;8.00;99.90;;;;;;4997920;28;20199;-80
2021/11/01 21:38:06;;;;;;;307.43;291.67;;;8.00;99.90;;;;;;4997256;28;20215;-80
2021/11/01 21:40:32;;;;;;;283.63;269.43;;;8.00;99.90;;;;;;5015195;28;20545;-79
2021/11/01 21:42:58;;;;;;;324.93;308.83;;;8.10;99.90;;;;;;5015101;28;20233;-80
2021/11/01 21:45:23;;;;;;;405.63;384.57;;;8.10;99.90;;;;;;5000172;28;20621;-80
2021/11/01 21:47:49;;;;;;;335.10;318.47;;;8.20;99.90;;;;;;4999065;28;20205;-80
2021/11/01 21:50:15;;;;;;;283.20;269.30;;;8.10;99.90;;;;;;5016085;28;20277;-80
2021/11/01 21:52:43;;;;;;;307.10;291.87;;;8.10;99.90;;;;;;4999579;28;20626;-80
2021/11/01 21:55:09;;;;;;;353.00;336.30;;;8.20;99.90;;;;;;5017717;28;20292;-81
2021/11/01 21:57:43;;;;;;;325.70;309.70;;;8.10;99.90;;;;;;5016920;28;20214;-80
2021/11/01 22:26:44;;;;;;;317.43;301.07;;;8.00;99.90;;;;;;5003189;28;20282;-82
2021/11/01 22:34:48;;;;;;;260.60;248.17;;;8.10;99.90;;;;;;5013879;28;20341;-82
2021/11/01 22:58:08;;;;;;;301.87;287.40;;;8.00;99.90;;;;;;5013206;28;20175;-81
2021/11/01 23:00:37;;;;;;;338.93;323.03;;;7.90;99.90;;;;;;4997593;28;20187;-82
2021/11/01 23:03:09;;;;;;;423.70;403.30;;;7.90;99.90;;;;;;4997218;28;20205;-81
2021/11/01 23:06:31;;;;;;;447.40;424.63;;;8.10;99.90;;;;;;4997963;28;20241;-79
2021/11/01 23:33:00;;;;;;;334.53;318.43;;;8.30;99.90;;;;;;5012547;28;20202;-82
2021/11/01 23:35:25;;;;;;;426.83;405.57;;;8.20;99.90;;;;;;4996308;28;20211;-81
2021/11/01 23:37:51;;;;;;;428.50;407.17;;;8.20;99.90;;;;;;5012087;28;20171;-81
2021/11/01 23:40:16;;;;;;;390.37;370.73;;;8.10;99.90;;;;;;5012765;28;20590;-81
2021/11/01 23:42:42;;;;;;;332.93;316.53;;;8.10;99.90;;;;;;4995658;28;20287;-81
2021/11/01 23:45:08;;;;;;;344.50;328.13;;;8.10;99.90;;;;;;4995907;28;20179;-82
2021/11/01 23:47:33;;;;;;;389.17;369.60;;;8.10;99.90;;;;;;4995964;28;20179;-82
2021/11/01 23:49:59;;;;;;;539.90;509.37;;;8.00;99.90;;;;;;4995420;28;20190;-81
2021/11/01 23:52:25;;;;;;;555.63;524.37;;;7.90;99.90;;;;;;5011820;28;20225;-82
2021/11/01 23:54:51;;;;;;;588.30;555.27;;;7.90;99.90;;;;;;4996005;28;20218;-81
2021/11/01 23:57:19;;;;;;;525.47;496.87;;;7.90;99.90;;;;;;4995905;28;20182;-81
2021/11/01 23:59:45;;;;;;;489.00;462.67;;;7.90;99.90;;;;;;4995605;28;20575;-81
